sensor_id;sensor_type;location;lat;lon;timestamp;pressure;altitude;pressure_sealevel;temperature;humidity
59409;BME280;45213;32.654;-115.458;2023-02-04T00:02:00;102038.16;;;22.41;21.39
59409;BME280;45213;32.654;-115.458;2023-02-04T00:04:27;102044.38;;;22.40;20.69
59409;BME280;45213;32.654;-115.458;2023-02-04T00:06:53;102047.25;;;22.29;20.08
59409;BME280;45213;32.654;-115.458;2023-02-04T00:09:20;102051.00;;;22.16;21.34
59409;BME280;45213;32.654;-115.458;2023-02-04T00:11:47;102047.66;;;22.05;20.61
59409;BME280;45213;32.654;-115.458;2023-02-04T00:14:13;102038.06;;;21.99;20.94
59409;BME280;45213;32.654;-115.458;2023-02-04T00:16:40;102051.47;;;21.92;20.68
59409;BME280;45213;32.654;-115.458;2023-02-04T00:19:06;102054.16;;;21.90;19.56
59409;BME280;45213;32.654;-115.458;2023-02-04T00:21:33;102044.66;;;22.68;19.23
59409;BME280;45213;32.654;-115.458;2023-02-04T00:24:00;102040.59;;;22.52;21.02
59409;BME280;45213;32.654;-115.458;2023-02-04T00:26:26;102042.25;;;22.13;20.45
59409;BME280;45213;32.654;-115.458;2023-02-04T00:28:53;102041.47;;;22.06;19.51
59409;BME280;45213;32.654;-115.458;2023-02-04T00:31:19;102043.16;;;22.97;19.61
59409;BME280;45213;32.654;-115.458;2023-02-04T00:33:46;102053.94;;;24.94;17.73
59409;BME280;45213;32.654;-115.458;2023-02-04T00:36:13;102053.81;;;25.53;16.08
59409;BME280;45213;32.654;-115.458;2023-02-04T00:38:39;102056.69;;;25.74;16.65
59409;BME280;45213;32.654;-115.458;2023-02-04T00:41:06;102054.50;;;25.60;16.26
59409;BME280;45213;32.654;-115.458;2023-02-04T00:43:32;102052.69;;;25.34;16.16
59409;BME280;45213;32.654;-115.458;2023-02-04T00:45:59;102058.84;;;24.15;17.78
59409;BME280;45213;32.654;-115.458;2023-02-04T00:48:26;102071.72;;;21.96;20.49
59409;BME280;45213;32.654;-115.458;2023-02-04T00:50:52;102064.69;;;20.77;21.52
59409;BME280;45213;32.654;-115.458;2023-02-04T00:53:19;102060.09;;;20.17;23.57
59409;BME280;45213;32.654;-115.458;2023-02-04T00:55:46;102060.47;;;19.75;23.80
59409;BME280;45213;32.654;-115.458;2023-02-04T00:58:12;102058.03;;;19.48;24.37
59409;BME280;45213;32.654;-115.458;2023-02-04T01:00:39;102056.41;;;19.31;24.76
59409;BME280;45213;32.654;-115.458;2023-02-04T01:03:05;102045.09;;;19.11;25.86
59409;BME280;45213;32.654;-115.458;2023-02-04T01:05:33;102051.38;;;18.91;26.37
59409;BME280;45213;32.654;-115.458;2023-02-04T01:08:00;102050.59;;;18.65;26.59
59409;BME280;45213;32.654;-115.458;2023-02-04T01:10:27;102042.75;;;18.49;27.83
59409;BME280;45213;32.654;-115.458;2023-02-04T01:12:54;102050.72;;;18.31;27.62
59409;BME280;45213;32.654;-115.458;2023-02-04T01:15:21;102054.28;;;18.07;28.45
59409;BME280;45213;32.654;-115.458;2023-02-04T01:17:48;102057.84;;;17.92;28.35
59409;BME280;45213;32.654;-115.458;2023-02-04T01:20:15;102061.34;;;17.82;29.50
59409;BME280;45213;32.654;-115.458;2023-02-04T01:22:41;102058.69;;;17.71;29.40
59409;BME280;45213;32.654;-115.458;2023-02-04T01:25:08;102071.00;;;17.58;30.62
59409;BME280;45213;32.654;-115.458;2023-02-04T01:27:42;102077.13;;;17.45;30.46
59409;BME280;45213;32.654;-115.458;2023-02-04T01:30:10;102076.22;;;17.38;30.87
59409;BME280;45213;32.654;-115.458;2023-02-04T01:32:37;102067.44;;;17.24;32.53
59409;BME280;45213;32.654;-115.458;2023-02-04T01:35:04;102051.59;;;17.08;32.79
59409;BME280;45213;32.654;-115.458;2023-02-04T01:37:31;102053.34;;;16.97;32.69
59409;BME280;45213;32.654;-115.458;2023-02-04T01:39:58;102059.44;;;16.91;32.81
59409;BME280;45213;32.654;-115.458;2023-02-04T01:42:25;102055.06;;;16.83;34.52
59409;BME280;45213;32.654;-115.458;2023-02-04T01:44:52;102060.19;;;16.69;33.21
59409;BME280;45213;32.654;-115.458;2023-02-04T01:47:20;102058.41;;;16.59;34.36
59409;BME280;45213;32.654;-115.458;2023-02-04T01:49:51;102050.50;;;16.53;34.26
59409;BME280;45213;32.654;-115.458;2023-02-04T01:52:19;102053.13;;;16.49;35.52
59409;BME280;45213;32.654;-115.458;2023-02-04T01:54:47;102048.69;;;16.38;34.55
59409;BME280;45213;32.654;-115.458;2023-02-04T01:57:15;102060.03;;;16.26;34.90
59409;BME280;45213;32.654;-115.458;2023-02-04T01:59:45;102051.25;;;16.27;34.93
59409;BME280;45213;32.654;-115.458;2023-02-04T02:02:37;102050.31;;;16.16;35.72
59409;BME280;45213;32.654;-115.458;2023-02-04T02:05:11;102051.06;;;16.01;34.72
59409;BME280;45213;32.654;-115.458;2023-02-04T02:07:38;102058.91;;;15.93;35.50
59409;BME280;45213;32.654;-115.458;2023-02-04T02:10:06;102057.13;;;15.89;35.01
59409;BME280;45213;32.654;-115.458;2023-02-04T02:12:36;102065.88;;;15.88;35.48
59409;BME280;45213;32.654;-115.458;2023-02-04T02:15:03;102071.16;;;15.88;35.27
59409;BME280;45213;32.654;-115.458;2023-02-04T02:17:30;102080.72;;;15.81;35.58
59409;BME280;45213;32.654;-115.458;2023-02-04T02:19:58;102085.94;;;15.74;36.28
59409;BME280;45213;32.654;-115.458;2023-02-04T02:22:35;102089.34;;;15.70;37.68
59409;BME280;45213;32.654;-115.458;2023-02-04T02:25:13;102083.13;;;15.58;37.96
59409;BME280;45213;32.654;-115.458;2023-02-04T02:27:42;102089.94;;;15.41;38.23
59409;BME280;45213;32.654;-115.458;2023-02-04T02:30:10;102093.38;;;15.34;38.49
59409;BME280;45213;32.654;-115.458;2023-02-04T02:32:38;102081.91;;;15.24;38.89
59409;BME280;45213;32.654;-115.458;2023-02-04T02:35:05;102095.06;;;15.27;38.35
59409;BME280;45213;32.654;-115.458;2023-02-04T02:37:32;102099.41;;;15.25;39.35
59409;BME280;45213;32.654;-115.458;2023-02-04T02:39:59;102099.41;;;15.25;38.51
59409;BME280;45213;32.654;-115.458;2023-02-04T02:42:26;102093.22;;;15.18;39.75
59409;BME280;45213;32.654;-115.458;2023-02-04T02:44:53;102090.50;;;15.12;40.92
59409;BME280;45213;32.654;-115.458;2023-02-04T02:47:22;102080.66;;;14.90;40.24
59409;BME280;45213;32.654;-115.458;2023-02-04T02:49:52;102070.94;;;14.81;41.08
59409;BME280;45213;32.654;-115.458;2023-02-04T02:52:20;102055.03;;;14.66;41.25
59409;BME280;45213;32.654;-115.458;2023-02-04T02:54:48;102069.03;;;14.69;41.42
59409;BME280;45213;32.654;-115.458;2023-02-04T02:57:19;102066.34;;;14.65;43.03
59409;BME280;45213;32.654;-115.458;2023-02-04T02:59:47;102068.06;;;14.61;41.76
59409;BME280;45213;32.654;-115.458;2023-02-04T03:02:17;102062.66;;;14.50;42.19
59409;BME280;45213;32.654;-115.458;2023-02-04T03:04:51;102063.38;;;14.38;42.64
59409;BME280;45213;32.654;-115.458;2023-02-04T03:07:24;102061.63;;;14.39;43.03
59409;BME280;45213;32.654;-115.458;2023-02-04T03:09:51;102051.13;;;14.39;43.45
59409;BME280;45213;32.654;-115.458;2023-02-04T03:12:19;102053.75;;;14.39;43.17
59409;BME280;45213;32.654;-115.458;2023-02-04T03:14:46;102051.97;;;14.36;42.72
59409;BME280;45213;32.654;-115.458;2023-02-04T03:17:13;102047.59;;;14.34;43.77
59409;BME280;45213;32.654;-115.458;2023-02-04T03:19:40;102034.38;;;14.26;43.45
59409;BME280;45213;32.654;-115.458;2023-02-04T03:22:07;102029.06;;;14.20;42.94
59409;BME280;45213;32.654;-115.458;2023-02-04T03:24:35;102034.31;;;14.23;42.60
59409;BME280;45213;32.654;-115.458;2023-02-04T03:27:03;102028.19;;;14.21;42.59
59409;BME280;45213;32.654;-115.458;2023-02-04T03:29:29;102029.97;;;14.24;42.91
59409;BME280;45213;32.654;-115.458;2023-02-04T03:31:56;102027.31;;;14.20;44.58
59409;BME280;45213;32.654;-115.458;2023-02-04T03:34:25;102033.34;;;14.16;44.71
59409;BME280;45213;32.654;-115.458;2023-02-04T03:36:51;102041.16;;;14.12;43.72
59409;BME280;45213;32.654;-115.458;2023-02-04T03:39:18;102056.81;;;14.06;42.81
59409;BME280;45213;32.654;-115.458;2023-02-04T03:41:44;102052.38;;;14.02;44.08
59409;BME280;45213;32.654;-115.458;2023-02-04T03:44:11;102049.78;;;14.05;45.09
59409;BME280;45213;32.654;-115.458;2023-02-04T03:46:37;102057.56;;;14.00;44.90
59409;BME280;45213;32.654;-115.458;2023-02-04T03:49:04;102053.09;;;13.93;45.99
59409;BME280;45213;32.654;-115.458;2023-02-04T03:51:31;102043.41;;;13.86;46.03
59409;BME280;45213;32.654;-115.458;2023-02-04T03:53:57;102049.44;;;13.82;46.61
59409;BME280;45213;32.654;-115.458;2023-02-04T03:56:24;102051.97;;;13.77;46.05
59409;BME280;45213;32.654;-115.458;2023-02-04T03:58:51;102051.09;;;13.78;46.37
59409;BME280;45213;32.654;-115.458;2023-02-04T04:01:17;102044.22;;;13.83;47.41
59409;BME280;45213;32.654;-115.458;2023-02-04T04:03:44;102060.66;;;13.74;47.34
59409;BME280;45213;32.654;-115.458;2023-02-04T04:06:10;102050.16;;;13.73;47.24
59409;BME280;45213;32.654;-115.458;2023-02-04T04:08:37;102047.53;;;13.73;47.87
59409;BME280;45213;32.654;-115.458;2023-02-04T04:11:04;102051.03;;;13.72;48.27
59409;BME280;45213;32.654;-115.458;2023-02-04T04:13:31;102047.50;;;13.70;47.79
59409;BME280;45213;32.654;-115.458;2023-02-04T04:15:57;102045.72;;;13.69;47.72
59409;BME280;45213;32.654;-115.458;2023-02-04T04:18:24;102048.31;;;13.66;47.57
59409;BME280;45213;32.654;-115.458;2023-02-04T04:20:51;102050.06;;;13.67;48.68
59409;BME280;45213;32.654;-115.458;2023-02-04T04:23:17;102044.75;;;13.62;48.09
59409;BME280;45213;32.654;-115.458;2023-02-04T04:25:44;102037.75;;;13.61;47.14
59409;BME280;45213;32.654;-115.458;2023-02-04T04:28:11;102037.69;;;13.56;47.54
59409;BME280;45213;32.654;-115.458;2023-02-04T04:30:38;102038.44;;;13.49;48.62
59409;BME280;45213;32.654;-115.458;2023-02-04T04:33:04;102034.69;;;13.35;48.46
59409;BME280;45213;32.654;-115.458;2023-02-04T04:35:31;102027.66;;;13.31;48.92
59409;BME280;45213;32.654;-115.458;2023-02-04T04:37:57;102020.69;;;13.31;49.32
59409;BME280;45213;32.654;-115.458;2023-02-04T04:40:24;102024.94;;;13.26;49.25
59409;BME280;45213;32.654;-115.458;2023-02-04T04:42:51;102021.44;;;13.27;49.22
59409;BME280;45213;32.654;-115.458;2023-02-04T04:45:17;102024.75;;;13.17;49.96
59409;BME280;45213;32.654;-115.458;2023-02-04T04:47:45;102027.34;;;13.15;50.66
59409;BME280;45213;32.654;-115.458;2023-02-04T04:50:12;102030.81;;;13.14;50.98
59409;BME280;45213;32.654;-115.458;2023-02-04T04:52:38;102026.31;;;13.06;51.44
59409;BME280;45213;32.654;-115.458;2023-02-04T04:55:05;102034.13;;;13.04;51.49
59409;BME280;45213;32.654;-115.458;2023-02-04T04:57:33;102043.63;;;12.99;50.05
59409;BME280;45213;32.654;-115.458;2023-02-04T05:00:00;102046.00;;;12.88;50.62
59409;BME280;45213;32.654;-115.458;2023-02-04T05:02:26;102042.44;;;12.85;50.96
59409;BME280;45213;32.654;-115.458;2023-02-04T05:04:53;102043.31;;;12.84;51.58
59409;BME280;45213;32.654;-115.458;2023-02-04T05:07:20;102042.44;;;12.85;51.38
59409;BME280;45213;32.654;-115.458;2023-02-04T05:09:46;102048.66;;;12.90;51.29
59409;BME280;45213;32.654;-115.458;2023-02-04T05:12:13;102045.13;;;12.88;51.53
59409;BME280;45213;32.654;-115.458;2023-02-04T05:14:40;102057.19;;;12.81;52.00
59409;BME280;45213;32.654;-115.458;2023-02-04T05:17:06;102049.19;;;12.73;52.60
59409;BME280;45213;32.654;-115.458;2023-02-04T05:19:33;102062.09;;;12.66;51.98
59409;BME280;45213;32.654;-115.458;2023-02-04T05:22:00;102066.47;;;12.65;52.79
59409;BME280;45213;32.654;-115.458;2023-02-04T05:24:27;102067.28;;;12.64;52.28
59409;BME280;45213;32.654;-115.458;2023-02-04T05:26:54;102055.88;;;12.59;52.38
59409;BME280;45213;32.654;-115.458;2023-02-04T05:29:20;102070.00;;;12.69;52.48
59409;BME280;45213;32.654;-115.458;2023-02-04T05:31:47;102066.38;;;12.62;53.05
59409;BME280;45213;32.654;-115.458;2023-02-04T05:34:13;102073.28;;;12.60;52.77
59409;BME280;45213;32.654;-115.458;2023-02-04T05:36:40;102073.28;;;12.60;53.92
59409;BME280;45213;32.654;-115.458;2023-02-04T05:39:07;102064.56;;;12.58;53.83
59409;BME280;45213;32.654;-115.458;2023-02-04T05:41:33;102077.66;;;12.60;54.13
59409;BME280;45213;32.654;-115.458;2023-02-04T05:44:00;102085.47;;;12.58;53.97
59409;BME280;45213;32.654;-115.458;2023-02-04T05:46:26;102088.88;;;12.54;53.12
59409;BME280;45213;32.654;-115.458;2023-02-04T05:48:53;102088.00;;;12.55;52.42
59409;BME280;45213;32.654;-115.458;2023-02-04T05:51:20;102089.06;;;12.65;52.04
59409;BME280;45213;32.654;-115.458;2023-02-04T05:53:46;102095.22;;;12.65;53.08
59409;BME280;45213;32.654;-115.458;2023-02-04T05:56:13;102085.47;;;12.58;53.09
59409;BME280;45213;32.654;-115.458;2023-02-04T05:58:39;102084.72;;;12.64;54.19
59409;BME280;45213;32.654;-115.458;2023-02-04T06:01:06;102087.38;;;12.67;53.55
59409;BME280;45213;32.654;-115.458;2023-02-04T06:03:33;102077.78;;;12.66;52.60
59409;BME280;45213;32.654;-115.458;2023-02-04T06:05:59;102083.88;;;12.66;53.29
59409;BME280;45213;32.654;-115.458;2023-02-04T06:08:26;102081.13;;;12.59;52.81
59409;BME280;45213;32.654;-115.458;2023-02-04T06:10:52;102092.41;;;12.56;52.71
59409;BME280;45213;32.654;-115.458;2023-02-04T06:13:19;102095.84;;;12.55;51.70
59409;BME280;45213;32.654;-115.458;2023-02-04T06:15:45;102101.94;;;12.54;51.96
59409;BME280;45213;32.654;-115.458;2023-02-04T06:18:12;102100.03;;;12.48;51.54
59409;BME280;45213;32.654;-115.458;2023-02-04T06:20:39;102098.44;;;12.55;49.94
59409;BME280;45213;32.654;-115.458;2023-02-04T06:23:05;102080.22;;;12.57;51.63
59409;BME280;45213;32.654;-115.458;2023-02-04T06:25:32;102080.16;;;12.53;52.39
59409;BME280;45213;32.654;-115.458;2023-02-04T06:27:58;102081.84;;;12.53;52.15
59409;BME280;45213;32.654;-115.458;2023-02-04T06:30:25;102084.25;;;12.42;51.85
59409;BME280;45213;32.654;-115.458;2023-02-04T06:32:52;102086.69;;;12.35;51.07
59409;BME280;45213;32.654;-115.458;2023-02-04T06:35:18;102091.06;;;12.36;53.09
59409;BME280;45213;32.654;-115.458;2023-02-04T06:37:45;102090.22;;;12.37;51.13
59409;BME280;45213;32.654;-115.458;2023-02-04T06:40:12;102093.59;;;12.32;51.20
59409;BME280;45213;32.654;-115.458;2023-02-04T06:42:38;102104.81;;;12.27;51.60
59409;BME280;45213;32.654;-115.458;2023-02-04T06:45:06;102108.78;;;12.11;50.82
59409;BME280;45213;32.654;-115.458;2023-02-04T06:47:32;102106.78;;;12.01;50.80
59409;BME280;45213;32.654;-115.458;2023-02-04T06:49:59;102120.69;;;12.00;51.11
59409;BME280;45213;32.654;-115.458;2023-02-04T06:52:26;102117.97;;;11.95;48.33
59409;BME280;45213;32.654;-115.458;2023-02-04T06:54:52;102115.63;;;12.06;47.46
59409;BME280;45213;32.654;-115.458;2023-02-04T06:57:19;102117.59;;;12.16;47.11
59409;BME280;45213;32.654;-115.458;2023-02-04T06:59:45;102120.22;;;12.16;46.31
59409;BME280;45213;32.654;-115.458;2023-02-04T07:02:12;102118.59;;;12.21;45.33
59409;BME280;45213;32.654;-115.458;2023-02-04T07:04:38;102110.84;;;12.24;45.27
59409;BME280;45213;32.654;-115.458;2023-02-04T07:07:05;102115.09;;;12.21;44.87
59409;BME280;45213;32.654;-115.458;2023-02-04T07:09:32;102114.28;;;12.22;44.66
59409;BME280;45213;32.654;-115.458;2023-02-04T07:11:58;102106.38;;;12.20;45.04
59409;BME280;45213;32.654;-115.458;2023-02-04T07:14:25;102099.38;;;12.18;45.65
59409;BME280;45213;32.654;-115.458;2023-02-04T07:16:51;102095.84;;;12.17;45.70
59409;BME280;45213;32.654;-115.458;2023-02-04T07:19:18;102091.63;;;12.22;46.11
59409;BME280;45213;32.654;-115.458;2023-02-04T07:21:45;102091.84;;;12.33;46.35
59409;BME280;45213;32.654;-115.458;2023-02-04T07:24:12;102093.53;;;12.29;45.79
59409;BME280;45213;32.654;-115.458;2023-02-04T07:26:39;102084.72;;;12.24;45.89
59409;BME280;45213;32.654;-115.458;2023-02-04T07:29:05;102076.03;;;12.25;46.18
59409;BME280;45213;32.654;-115.458;2023-02-04T07:31:32;102076.84;;;12.23;46.93
59409;BME280;45213;32.654;-115.458;2023-02-04T07:33:59;102059.34;;;12.19;48.08
59409;BME280;45213;32.654;-115.458;2023-02-04T07:36:26;102057.47;;;12.13;48.46
59409;BME280;45213;32.654;-115.458;2023-02-04T07:38:53;102061.63;;;12.05;48.35
59409;BME280;45213;32.654;-115.458;2023-02-04T07:41:19;102061.59;;;12.03;47.38
59409;BME280;45213;32.654;-115.458;2023-02-04T07:43:46;102060.66;;;12.00;47.93
59409;BME280;45213;32.654;-115.458;2023-02-04T07:46:13;102048.31;;;11.94;49.19
59409;BME280;45213;32.654;-115.458;2023-02-04T07:48:40;102052.41;;;11.84;49.70
59409;BME280;45213;32.654;-115.458;2023-02-04T07:51:06;102041.75;;;11.75;50.42
59409;BME280;45213;32.654;-115.458;2023-02-04T07:53:33;102034.63;;;11.68;51.02
59409;BME280;45213;32.654;-115.458;2023-02-04T07:56:00;102045.66;;;11.56;52.12
59409;BME280;45213;32.654;-115.458;2023-02-04T07:58:27;102037.59;;;11.48;50.42
59409;BME280;45213;32.654;-115.458;2023-02-04T08:00:53;102048.91;;;11.47;51.54
59409;BME280;45213;32.654;-115.458;2023-02-04T08:03:20;102054.81;;;11.40;52.23
59409;BME280;45213;32.654;-115.458;2023-02-04T08:05:47;102040.72;;;11.34;52.29
59409;BME280;45213;32.654;-115.458;2023-02-04T08:08:15;102047.75;;;11.36;52.00
59409;BME280;45213;32.654;-115.458;2023-02-04T08:10:42;102046.59;;;11.25;50.45
59409;BME280;45213;32.654;-115.458;2023-02-04T08:13:09;102043.22;;;11.29;49.92
59409;BME280;45213;32.654;-115.458;2023-02-04T08:15:35;102043.63;;;11.46;48.75
59409;BME280;45213;32.654;-115.458;2023-02-04T08:18:03;102036.91;;;11.54;48.52
59409;BME280;45213;32.654;-115.458;2023-02-04T08:20:30;102035.44;;;11.65;48.36
59409;BME280;45213;32.654;-115.458;2023-02-04T08:22:57;102032.94;;;11.70;48.05
59409;BME280;45213;32.654;-115.458;2023-02-04T08:25:24;102037.41;;;11.76;47.71
59409;BME280;45213;32.654;-115.458;2023-02-04T08:27:51;102022.72;;;11.79;47.09
59409;BME280;45213;32.654;-115.458;2023-02-04T08:30:18;102039.50;;;11.89;48.27
59409;BME280;45213;32.654;-115.458;2023-02-04T08:32:44;102039.38;;;11.84;48.44
59409;BME280;45213;32.654;-115.458;2023-02-04T08:35:11;102033.06;;;11.76;48.61
59409;BME280;45213;32.654;-115.458;2023-02-04T08:37:38;102036.47;;;11.72;48.56
59409;BME280;45213;32.654;-115.458;2023-02-04T08:40:05;102036.47;;;11.72;49.28
59409;BME280;45213;32.654;-115.458;2023-02-04T08:42:31;102045.78;;;11.62;48.79
59409;BME280;45213;32.654;-115.458;2023-02-04T08:45:00;102043.22;;;11.64;48.31
59409;BME280;45213;32.654;-115.458;2023-02-04T08:47:26;102039.84;;;11.68;48.92
59409;BME280;45213;32.654;-115.458;2023-02-04T08:49:53;102040.44;;;11.58;48.06
59409;BME280;45213;32.654;-115.458;2023-02-04T08:52:20;102045.78;;;11.62;48.11
59409;BME280;45213;32.654;-115.458;2023-02-04T08:54:46;102059.69;;;11.61;48.66
59409;BME280;45213;32.654;-115.458;2023-02-04T08:57:13;102057.13;;;11.63;48.44
59409;BME280;45213;32.654;-115.458;2023-02-04T08:59:40;102056.97;;;11.57;48.46
59409;BME280;45213;32.654;-115.458;2023-02-04T09:02:08;102057.78;;;11.56;48.39
59409;BME280;45213;32.654;-115.458;2023-02-04T09:04:35;102050.06;;;11.60;48.95
59409;BME280;45213;32.654;-115.458;2023-02-04T09:07:02;102058.81;;;11.61;49.86
59409;BME280;45213;32.654;-115.458;2023-02-04T09:09:28;102058.53;;;11.50;48.98
59409;BME280;45213;32.654;-115.458;2023-02-04T09:11:55;102057.31;;;11.37;48.81
59409;BME280;45213;32.654;-115.458;2023-02-04T09:14:22;102056.50;;;11.38;48.82
59409;BME280;45213;32.654;-115.458;2023-02-04T09:16:48;102048.50;;;11.32;49.16
59409;BME280;45213;32.654;-115.458;2023-02-04T09:19:15;102051.19;;;11.35;49.73
59409;BME280;45213;32.654;-115.458;2023-02-04T09:21:44;102053.75;;;11.34;50.82
59409;BME280;45213;32.654;-115.458;2023-02-04T09:24:11;102049.13;;;11.22;50.64
59409;BME280;45213;32.654;-115.458;2023-02-04T09:26:37;102051.59;;;11.17;51.63
59409;BME280;45213;32.654;-115.458;2023-02-04T09:29:04;102052.22;;;11.08;52.05
59409;BME280;45213;32.654;-115.458;2023-02-04T09:31:31;102044.31;;;11.05;52.49
59409;BME280;45213;32.654;-115.458;2023-02-04T09:33:57;102044.97;;;10.98;52.23
59409;BME280;45213;32.654;-115.458;2023-02-04T09:36:25;102049.16;;;10.92;53.32
59409;BME280;45213;32.654;-115.458;2023-02-04T09:38:54;102044.53;;;10.81;53.46
59409;BME280;45213;32.654;-115.458;2023-02-04T09:41:21;102040.69;;;10.69;53.30
59409;BME280;45213;32.654;-115.458;2023-02-04T09:43:47;102053.72;;;10.69;53.20
59409;BME280;45213;32.654;-115.458;2023-02-04T09:46:21;102048.44;;;10.67;54.06
59409;BME280;45213;32.654;-115.458;2023-02-04T09:48:49;102057.06;;;10.64;54.34
59409;BME280;45213;32.654;-115.458;2023-02-04T09:51:22;102056.06;;;10.59;54.40
59409;BME280;45213;32.654;-115.458;2023-02-04T09:53:51;102053.97;;;10.48;53.61
59409;BME280;45213;32.654;-115.458;2023-02-04T09:56:21;102057.25;;;10.42;55.00
59409;BME280;45213;32.654;-115.458;2023-02-04T09:58:48;102063.25;;;10.38;55.38
59409;BME280;45213;32.654;-115.458;2023-02-04T10:01:18;102056.78;;;10.27;55.31
59409;BME280;45213;32.654;-115.458;2023-02-04T10:03:46;102056.78;;;10.27;55.23
59409;BME280;45213;32.654;-115.458;2023-02-04T10:06:19;102063.75;;;10.28;55.56
59409;BME280;45213;32.654;-115.458;2023-02-04T10:08:48;102056.66;;;10.22;55.60
59409;BME280;45213;32.654;-115.458;2023-02-04T10:11:16;102063.56;;;10.21;55.44
59409;BME280;45213;32.654;-115.458;2023-02-04T10:13:52;102058.53;;;10.28;55.66
59409;BME280;45213;32.654;-115.458;2023-02-04T10:16:24;102057.66;;;10.27;54.95
59409;BME280;45213;32.654;-115.458;2023-02-04T10:18:59;102060.31;;;10.29;54.16
59409;BME280;45213;32.654;-115.458;2023-02-04T10:21:29;102049.28;;;10.36;54.41
59409;BME280;45213;32.654;-115.458;2023-02-04T10:23:58;102045.88;;;10.38;54.41
59409;BME280;45213;32.654;-115.458;2023-02-04T10:26:28;102042.34;;;10.36;53.97
59409;BME280;45213;32.654;-115.458;2023-02-04T10:29:04;102045.88;;;10.38;53.99
59409;BME280;45213;32.654;-115.458;2023-02-04T10:31:36;102042.34;;;10.36;52.84
59409;BME280;45213;32.654;-115.458;2023-02-04T10:36:51;102039.88;;;10.41;53.48
59409;BME280;45213;32.654;-115.458;2023-02-04T10:39:21;102040.03;;;10.45;53.17
59409;BME280;45213;32.654;-115.458;2023-02-04T10:41:52;102042.56;;;10.44;53.83
59409;BME280;45213;32.654;-115.458;2023-02-04T10:44:30;102036.28;;;10.36;53.98
59409;BME280;45213;32.654;-115.458;2023-02-04T10:47:15;102032.72;;;10.34;55.33
59409;BME280;45213;32.654;-115.458;2023-02-04T10:49:55;102037.81;;;10.29;54.48
59409;BME280;45213;32.654;-115.458;2023-02-04T10:52:29;102026.09;;;10.16;54.46
59409;BME280;45213;32.654;-115.458;2023-02-04T10:55:01;102019.00;;;10.11;55.26
59409;BME280;45213;32.654;-115.458;2023-02-04T10:57:29;102018.88;;;10.08;56.46
59409;BME280;45213;32.654;-115.458;2023-02-04T11:00:00;102021.19;;;9.98;56.07
59409;BME280;45213;32.654;-115.458;2023-02-04T11:02:43;102017.53;;;9.92;55.44
59409;BME280;45213;32.654;-115.458;2023-02-04T11:05:18;102020.97;;;9.91;55.39
59409;BME280;45213;32.654;-115.458;2023-02-04T11:07:47;102020.31;;;9.98;55.77
59409;BME280;45213;32.654;-115.458;2023-02-04T11:10:22;102023.72;;;9.95;56.29
59409;BME280;45213;32.654;-115.458;2023-02-04T11:15:41;102028.50;;;9.81;57.13
59409;BME280;45213;32.654;-115.458;2023-02-04T11:20:49;102013.41;;;9.71;57.06
59409;BME280;45213;32.654;-115.458;2023-02-04T11:26:06;102014.13;;;9.67;58.20
59409;BME280;45213;32.654;-115.458;2023-02-04T11:33:41;102013.66;;;9.52;59.73
59409;BME280;45213;32.654;-115.458;2023-02-04T11:36:10;102014.47;;;9.51;59.52
59409;BME280;45213;32.654;-115.458;2023-02-04T11:38:39;102016.91;;;9.46;60.09
59409;BME280;45213;32.654;-115.458;2023-02-04T11:41:16;102015.81;;;9.39;60.39
59409;BME280;45213;32.654;-115.458;2023-02-04T11:43:50;102017.63;;;9.40;60.67
59409;BME280;45213;32.654;-115.458;2023-02-04T11:46:17;102016.56;;;9.35;60.49
59409;BME280;45213;32.654;-115.458;2023-02-04T11:48:45;102015.44;;;9.27;61.11
59409;BME280;45213;32.654;-115.458;2023-02-04T11:51:15;102020.63;;;9.27;61.00
59409;BME280;45213;32.654;-115.458;2023-02-04T11:53:43;102015.44;;;9.27;61.37
59409;BME280;45213;32.654;-115.458;2023-02-04T11:56:17;102015.31;;;9.24;61.39
59409;BME280;45213;32.654;-115.458;2023-02-04T11:58:44;102020.31;;;9.18;61.73
59409;BME280;45213;32.654;-115.458;2023-02-04T12:01:17;102022.69;;;9.12;61.36
59409;BME280;45213;32.654;-115.458;2023-02-04T12:03:48;102019.94;;;9.07;60.64
59409;BME280;45213;32.654;-115.458;2023-02-04T12:06:22;102017.44;;;9.10;60.14
59409;BME280;45213;32.654;-115.458;2023-02-04T12:08:49;102014.06;;;9.13;60.31
59409;BME280;45213;32.654;-115.458;2023-02-04T12:11:27;102014.19;;;9.16;59.93
59409;BME280;45213;32.654;-115.458;2023-02-04T12:14:09;102017.66;;;9.16;59.92
59409;BME280;45213;32.654;-115.458;2023-02-04T12:16:45;102022.94;;;9.19;58.92
59409;BME280;45213;32.654;-115.458;2023-02-04T12:19:12;102016.78;;;9.16;59.39
59409;BME280;45213;32.654;-115.458;2023-02-04T12:21:39;102018.34;;;9.11;59.52
59409;BME280;45213;32.654;-115.458;2023-02-04T12:24:07;102022.47;;;9.06;59.68
59409;BME280;45213;32.654;-115.458;2023-02-04T12:26:34;102024.13;;;9.04;60.46
59409;BME280;45213;32.654;-115.458;2023-02-04T12:29:01;102021.38;;;8.99;60.58
59409;BME280;45213;32.654;-115.458;2023-02-04T12:31:29;102023.94;;;8.97;61.75
59409;BME280;45213;32.654;-115.458;2023-02-04T12:33:55;102021.38;;;8.99;62.06
59409;BME280;45213;32.654;-115.458;2023-02-04T12:36:22;102018.75;;;8.97;61.73
59409;BME280;45213;32.654;-115.458;2023-02-04T12:38:49;102015.81;;;8.88;61.97
59409;BME280;45213;32.654;-115.458;2023-02-04T12:41:16;102013.94;;;8.84;62.02